createdAt,value
2023-04-10T00:00:48.222Z,13.77
2023-04-10T00:03:34.007Z,14.17
2023-04-10T00:06:19.491Z,13.70
2023-04-10T00:09:04.871Z,13.00
2023-04-10T00:11:50.651Z,13.33
2023-04-10T00:14:36.274Z,12.63
2023-04-10T00:17:21.513Z,13.50
2023-04-10T00:20:07.440Z,13.23
2023-04-10T00:22:52.857Z,14.00
2023-04-10T00:25:38.407Z,13.60
2023-04-10T00:28:23.702Z,12.50
2023-04-10T00:31:09.218Z,13.03
2023-04-10T00:33:54.647Z,13.03
2023-04-10T00:36:40.403Z,13.83
2023-04-10T00:39:26.017Z,13.33
2023-04-10T00:42:11.361Z,12.53
2023-04-10T00:44:56.639Z,12.70
2023-04-10T00:47:42.086Z,13.63
2023-04-10T00:50:27.471Z,13.20
2023-04-10T00:53:13.163Z,13.10
2023-04-10T00:55:59.403Z,12.77
2023-04-10T00:58:45.375Z,13.47
2023-04-10T01:01:31.410Z,13.53
2023-04-10T01:04:17.188Z,13.77
2023-04-10T01:07:19.007Z,13.00
2023-04-10T01:10:13.293Z,12.40
2023-04-10T01:13:23.734Z,12.87
2023-04-10T01:16:26.542Z,12.97
2023-04-10T01:19:42.917Z,12.63
2023-04-10T01:22:46.660Z,12.90
2023-04-10T01:28:43.521Z,12.83
2023-04-10T01:31:39.398Z,12.60
2023-04-10T01:34:32.451Z,12.77
2023-04-10T01:37:26.191Z,13.10
2023-04-10T01:40:15.528Z,12.57
2023-04-10T01:43:06.167Z,12.50
2023-04-10T01:46:03.987Z,12.17
2023-04-10T01:48:52.257Z,12.37
2023-04-10T01:51:38.087Z,12.53
2023-04-10T01:54:28.781Z,13.03
2023-04-10T01:57:15.978Z,11.90
2023-04-10T02:00:11.005Z,12.33
2023-04-10T02:03:02.412Z,11.97
2023-04-10T02:06:11.414Z,11.83
2023-04-10T02:09:15.907Z,12.27
2023-04-10T02:12:07.258Z,11.67
2023-04-10T02:14:56.255Z,12.10
2023-04-10T02:17:42.719Z,12.30
2023-04-10T02:20:28.864Z,12.13
2023-04-10T02:23:17.438Z,11.80
2023-04-10T02:26:08.006Z,11.63
2023-04-10T02:28:53.538Z,11.33
2023-04-10T02:31:39.242Z,11.13
2023-04-10T02:34:24.781Z,10.83
2023-04-10T02:37:10.212Z,10.60
2023-04-10T02:39:55.709Z,11.30
2023-04-10T02:42:43.460Z,11.80
2023-04-10T02:45:29.785Z,11.23
2023-04-10T02:48:15.127Z,10.70
2023-04-10T02:51:00.424Z,11.70
2023-04-10T02:53:48.704Z,11.30
2023-04-10T02:56:44.354Z,11.23
2023-04-10T02:59:29.544Z,10.77
2023-04-10T03:02:15.927Z,11.50
2023-04-10T03:05:02.559Z,10.30
2023-04-10T03:07:47.966Z,10.67
2023-04-10T03:10:33.819Z,10.87
2023-04-10T03:13:18.964Z,10.83
2023-04-10T03:16:04.356Z,11.03
2023-04-10T03:18:50.199Z,11.23
2023-04-10T03:21:35.449Z,10.27
2023-04-10T03:24:22.751Z,10.13
2023-04-10T03:27:08.051Z,10.83
2023-04-10T03:29:53.260Z,10.77
2023-04-10T03:32:42.295Z,10.93
2023-04-10T03:35:28.138Z,10.60
2023-04-10T03:38:13.622Z,10.50
2023-04-10T03:40:59.639Z,9.97
2023-04-10T03:43:47.925Z,9.87
2023-04-10T03:46:33.867Z,9.80
2023-04-10T03:49:19.536Z,10.40
2023-04-10T03:52:05.457Z,9.63
2023-04-10T03:54:52.166Z,9.43
2023-04-10T03:57:43.777Z,9.50
2023-04-10T04:00:29.156Z,10.53
2023-04-10T04:03:24.172Z,9.20
2023-04-10T04:06:09.685Z,9.57
2023-04-10T04:08:58.928Z,9.57
2023-04-10T04:12:03.275Z,9.97
2023-04-10T04:15:09.879Z,9.47
2023-04-10T04:18:24.475Z,9.67
2023-04-10T04:21:15.870Z,9.00
2023-04-10T04:24:24.979Z,10.17
2023-04-10T04:27:33.353Z,9.47
2023-04-10T04:30:42.353Z,9.00
2023-04-10T04:33:30.636Z,9.03
2023-04-10T04:36:42.597Z,8.70
2023-04-10T04:39:50.795Z,8.37
2023-04-10T04:42:42.338Z,8.90
2023-04-10T04:45:27.398Z,8.80
2023-04-10T04:48:28.846Z,7.97
2023-04-10T04:51:31.746Z,8.23
2023-04-10T04:54:35.930Z,8.07
2023-04-10T04:57:39.949Z,7.93
2023-04-10T05:00:38.221Z,7.70
2023-04-10T05:03:46.827Z,7.60
2023-04-10T05:06:47.667Z,8.00
2023-04-10T05:09:42.009Z,7.50
2023-04-10T05:12:43.271Z,8.07
2023-04-10T05:15:45.347Z,7.17
2023-04-10T05:18:57.940Z,7.37
2023-04-10T05:22:13.086Z,6.87
2023-04-10T05:25:30.431Z,7.63
2023-04-10T05:28:41.947Z,7.47
2023-04-10T05:31:46.842Z,7.47
2023-04-10T05:34:52.362Z,6.73
2023-04-10T05:38:00.961Z,7.23
2023-04-10T05:40:52.191Z,7.53
2023-04-10T05:43:59.401Z,6.97
2023-04-10T05:47:04.515Z,6.63
2023-04-10T05:50:08.256Z,6.70
2023-04-10T05:53:19.899Z,7.17
2023-04-10T05:56:28.241Z,7.00
2023-04-10T05:59:38.973Z,6.60
2023-04-10T06:02:59.662Z,7.20
2023-04-10T06:05:46.732Z,7.70
2023-04-10T06:08:31.945Z,7.30
2023-04-10T06:11:18.085Z,7.30
2023-04-10T06:14:09.330Z,6.70
2023-04-10T06:17:01.826Z,7.37
2023-04-10T06:19:48.028Z,8.03
2023-04-10T06:22:33.674Z,8.23
2023-04-10T06:25:19.122Z,7.80
2023-04-10T06:28:04.753Z,7.03
2023-04-10T06:30:50.899Z,7.03
2023-04-10T06:33:37.314Z,7.20
2023-04-10T06:36:27.607Z,7.50
2023-04-10T06:39:19.735Z,8.37
2023-04-10T06:42:08.798Z,8.67
2023-04-10T06:48:06.739Z,7.70
2023-04-10T06:50:52.776Z,7.40
2023-04-10T06:53:38.530Z,7.50
2023-04-10T06:56:24.543Z,7.57
2023-04-10T06:59:12.729Z,7.63
2023-04-10T07:01:59.588Z,7.10
2023-04-10T07:04:44.840Z,7.20
2023-04-10T07:07:30.385Z,6.70
2023-04-10T07:10:15.739Z,7.20
2023-04-10T07:13:02.340Z,7.07
2023-04-10T07:15:47.702Z,7.00
2023-04-10T07:18:32.988Z,7.00
2023-04-10T07:21:18.314Z,6.43
2023-04-10T07:24:04.667Z,6.53
2023-04-10T07:26:49.877Z,6.80
2023-04-10T07:29:35.835Z,6.90
2023-04-10T07:32:22.598Z,7.07
2023-04-10T07:35:12.660Z,6.40
2023-04-10T07:37:59.001Z,6.70
2023-04-10T07:40:44.873Z,6.50
2023-04-10T07:43:30.649Z,6.43
2023-04-10T07:46:17.666Z,6.90
2023-04-10T07:49:05.631Z,7.20
2023-04-10T07:51:52.624Z,6.23
2023-04-10T07:54:38.388Z,6.13
2023-04-10T07:57:24.698Z,6.80
2023-04-10T08:00:10.438Z,6.67
2023-04-10T08:03:33.672Z,6.10
2023-04-10T08:06:19.423Z,6.37
2023-04-10T08:09:05.090Z,6.10
2023-04-10T08:12:05.440Z,6.43
2023-04-10T08:14:54.297Z,6.60
2023-04-10T08:17:44.700Z,6.87
2023-04-10T08:20:38.254Z,6.87
2023-04-10T08:23:26.991Z,6.67
2023-04-10T08:26:14.120Z,6.83
2023-04-10T08:29:02.929Z,6.47
2023-04-10T08:31:51.802Z,5.63
2023-04-10T08:34:41.810Z,5.83
2023-04-10T08:37:29.905Z,5.87
2023-04-10T08:40:17.605Z,5.87
2023-04-10T08:43:04.201Z,6.17
2023-04-10T08:45:52.366Z,6.43
2023-04-10T08:49:04.567Z,5.50
2023-04-10T08:51:59.318Z,5.60
2023-04-10T08:54:53.294Z,5.77
2023-04-10T08:57:47.886Z,5.90
2023-04-10T09:00:38.836Z,5.90
2023-04-10T09:03:25.685Z,6.00
2023-04-10T09:06:11.487Z,6.17
2023-04-10T09:09:02.953Z,6.00
2023-04-10T09:11:52.308Z,5.50
2023-04-10T09:14:38.054Z,5.27
2023-04-10T09:17:24.815Z,5.77
2023-04-10T09:20:22.026Z,5.70
2023-04-10T09:23:22.179Z,5.87
2023-04-10T09:26:30.714Z,6.50
2023-04-10T09:29:19.772Z,6.50
2023-04-10T09:32:05.891Z,6.93
2023-04-10T09:34:57.611Z,6.93
2023-04-10T09:37:46.920Z,6.90
2023-04-10T09:40:32.791Z,6.87
2023-04-10T09:43:25.769Z,6.87
2023-04-10T09:46:11.745Z,6.43
2023-04-10T09:48:57.232Z,7.10
2023-04-10T09:51:43.529Z,6.40
2023-04-10T09:54:38.197Z,6.50
2023-04-10T09:57:25.815Z,6.90
2023-04-10T10:00:14.333Z,6.30
2023-04-10T10:03:06.986Z,6.60
2023-04-10T10:05:52.853Z,6.55
2023-04-10T10:08:38.996Z,6.17
2023-04-10T10:11:26.333Z,6.20
2023-04-10T10:14:18.061Z,6.83
2023-04-10T10:17:12.283Z,6.00
2023-04-10T10:20:05.867Z,5.83
2023-04-10T10:22:52.854Z,6.27
2023-04-10T10:25:39.361Z,5.87
2023-04-10T10:28:28.244Z,5.80
2023-04-10T10:31:14.974Z,6.10
2023-04-10T10:34:05.481Z,5.90
2023-04-10T10:36:51.135Z,5.97
2023-04-10T10:40:04.332Z,5.90
2023-04-10T10:43:26.960Z,6.32
2023-04-10T10:46:29.920Z,5.53
2023-04-10T10:49:15.918Z,5.53
2023-04-10T10:52:01.177Z,5.17
2023-04-10T10:54:57.044Z,5.47
2023-04-10T10:57:53.035Z,5.80
2023-04-10T11:00:51.092Z,5.80
2023-04-10T11:03:37.900Z,5.50
2023-04-10T11:06:53.175Z,5.50
2023-04-10T11:09:53.770Z,5.00
2023-04-10T11:13:18.317Z,5.37
2023-04-10T11:16:06.812Z,5.37
2023-04-10T11:19:02.664Z,5.20
2023-04-10T11:22:01.702Z,5.00
2023-04-10T11:24:58.052Z,4.97
2023-04-10T11:27:51.899Z,5.07
2023-04-10T11:30:37.539Z,5.30
2023-04-10T11:33:23.251Z,4.80
2023-04-10T11:36:08.530Z,5.20
2023-04-10T11:39:14.221Z,5.07
2023-04-10T11:42:03.022Z,5.17
2023-04-10T11:44:49.562Z,6.53
2023-04-10T11:48:00.745Z,6.37
2023-04-10T11:50:46.328Z,5.20
2023-04-10T11:53:31.801Z,5.80
2023-04-10T11:56:19.282Z,5.43
2023-04-10T11:59:07.941Z,5.07
2023-04-10T12:02:03.057Z,4.93
2023-04-10T12:04:58.264Z,4.87
2023-04-10T12:07:43.754Z,4.70
2023-04-10T12:10:29.915Z,4.80
2023-04-10T12:13:31.029Z,5.20
2023-04-10T12:16:16.824Z,4.73
2023-04-10T12:19:02.595Z,4.57
2023-04-10T12:21:48.704Z,4.70
2023-04-10T12:24:40.972Z,5.20
2023-04-10T12:27:27.729Z,4.60
2023-04-10T12:30:55.424Z,4.90
2023-04-10T12:33:46.438Z,4.93
2023-04-10T12:36:34.611Z,4.70
2023-04-10T12:39:34.566Z,4.87
2023-04-10T12:42:22.935Z,5.10
2023-04-10T12:45:10.468Z,4.80
2023-04-10T12:47:56.450Z,4.57
2023-04-10T12:50:48.205Z,4.73
2023-04-10T12:54:03.987Z,4.63
2023-04-10T12:56:51.501Z,4.57
2023-04-10T12:59:40.398Z,4.23
2023-04-10T13:02:30.467Z,4.47
2023-04-10T13:05:42.323Z,4.43
2023-04-10T13:08:39.421Z,4.30
2023-04-10T13:11:24.450Z,4.27
2023-04-10T13:14:11.206Z,4.80
2023-04-10T13:16:56.369Z,4.30
2023-04-10T13:19:41.458Z,4.30
2023-04-10T13:22:26.927Z,4.47
2023-04-10T13:25:12.359Z,4.27
2023-04-10T13:27:57.989Z,4.80
2023-04-10T13:30:43.291Z,5.70
2023-04-10T13:33:31.738Z,5.13
2023-04-10T13:36:20.598Z,5.20
2023-04-10T13:39:07.214Z,8.20
2023-04-10T13:41:52.802Z,7.43
2023-04-10T13:44:38.169Z,10.03
2023-04-10T13:47:23.389Z,8.50
2023-04-10T13:50:09.085Z,7.87
2023-04-10T13:52:57.027Z,7.77
2023-04-10T13:55:44.577Z,8.47
2023-04-10T13:58:35.095Z,8.73
2023-04-10T14:01:23.187Z,8.93
2023-04-10T14:04:09.434Z,8.40
2023-04-10T14:06:57.863Z,8.80
2023-04-10T14:09:42.990Z,8.43
2023-04-10T14:12:28.635Z,9.03
2023-04-10T14:15:14.148Z,9.10
2023-04-10T14:18:01.208Z,8.80
2023-04-10T14:20:47.887Z,9.70
2023-04-10T14:23:33.256Z,9.90
2023-04-10T14:26:18.631Z,9.23
2023-04-10T14:29:08.685Z,8.70
2023-04-10T14:31:58.145Z,9.70
2023-04-10T14:34:51.258Z,8.60
2023-04-10T14:37:37.227Z,8.90
2023-04-10T14:40:22.930Z,9.67
2023-04-10T14:43:08.762Z,8.23
2023-04-10T14:45:54.034Z,8.23
2023-04-10T14:48:39.569Z,8.30
2023-04-10T14:51:25.178Z,8.00
2023-04-10T14:54:11.150Z,8.30
2023-04-10T14:56:58.480Z,7.80
2023-04-10T14:59:50.373Z,8.07
2023-04-10T15:02:42.306Z,7.70
2023-04-10T15:08:30.361Z,7.07
2023-04-10T15:11:16.503Z,7.30
2023-04-10T15:14:02.773Z,7.70
2023-04-10T15:16:48.609Z,6.93
2023-04-10T15:19:34.135Z,7.47
2023-04-10T15:22:19.597Z,6.93
2023-04-10T15:25:05.753Z,7.47
2023-04-10T15:27:51.324Z,6.77
2023-04-10T15:30:37.266Z,6.93
2023-04-10T15:33:22.831Z,7.13
2023-04-10T15:36:08.574Z,6.37
2023-04-10T15:38:54.306Z,7.00
2023-04-10T15:41:42.847Z,7.37
2023-04-10T15:44:29.398Z,6.40
2023-04-10T15:47:14.709Z,6.47
2023-04-10T15:50:01.114Z,6.53
2023-04-10T15:52:47.115Z,6.33
2023-04-10T15:55:32.743Z,6.33
2023-04-10T15:58:17.951Z,6.37
2023-04-10T16:01:03.558Z,6.43
2023-04-10T16:03:49.387Z,6.53
2023-04-10T16:06:37.622Z,6.20
2023-04-10T16:09:28.544Z,6.37
2023-04-10T16:12:15.360Z,6.20
2023-04-10T16:15:05.456Z,6.13
2023-04-10T16:17:50.935Z,6.00
2023-04-10T16:20:36.119Z,5.10
2023-04-10T16:23:21.399Z,6.20
2023-04-10T16:26:06.574Z,6.23
2023-04-10T16:28:53.184Z,6.53
2023-04-10T16:31:38.710Z,6.30
2023-04-10T16:34:26.597Z,5.70
2023-04-10T16:37:17.274Z,6.07
2023-04-10T16:40:04.496Z,6.87
2023-04-10T16:42:50.978Z,6.50
2023-04-10T16:45:39.091Z,6.27
2023-04-10T16:48:25.351Z,5.70
2023-04-10T16:51:17.757Z,6.43
2023-04-10T16:54:03.846Z,6.50
2023-04-10T16:56:51.378Z,6.23
2023-04-10T16:59:39.346Z,6.50
2023-04-10T17:02:27.525Z,6.37
2023-04-10T17:05:15.866Z,6.90
2023-04-10T17:08:03.124Z,6.70
2023-04-10T17:10:52.388Z,6.87
2023-04-10T17:13:41.621Z,7.13
2023-04-10T17:16:38.867Z,6.70
2023-04-10T17:19:24.156Z,6.63
2023-04-10T17:22:16.345Z,6.53
2023-04-10T17:25:01.847Z,6.93
2023-04-10T17:27:47.234Z,7.10
2023-04-10T17:30:33.568Z,7.17
2023-04-10T17:33:19.031Z,6.80
2023-04-10T17:36:05.766Z,7.23
2023-04-10T17:38:53.833Z,7.00
2023-04-10T17:41:40.831Z,7.60
2023-04-10T17:44:26.658Z,6.87
2023-04-10T17:47:13.182Z,7.40
2023-04-10T17:49:58.803Z,7.13
2023-04-10T17:52:44.787Z,7.43
2023-04-10T17:55:30.518Z,7.30
2023-04-10T17:58:15.976Z,6.90
2023-04-10T18:01:01.525Z,7.80
2023-04-10T18:03:46.851Z,7.17
2023-04-10T18:06:32.488Z,6.97
2023-04-10T18:09:17.663Z,7.00
2023-04-10T18:12:03.227Z,7.60
2023-04-10T18:14:49.055Z,7.40
2023-04-10T18:17:34.674Z,7.47
2023-04-10T18:20:20.928Z,6.80
2023-04-10T18:23:06.618Z,6.77
2023-04-10T18:25:55.926Z,6.50
2023-04-10T18:28:43.152Z,6.60
2023-04-10T18:31:28.847Z,7.07
2023-04-10T18:34:14.304Z,7.13
2023-04-10T18:37:00.159Z,6.60
2023-04-10T18:39:45.669Z,6.60
2023-04-10T18:42:31.183Z,6.93
2023-04-10T18:45:16.891Z,6.93
2023-04-10T18:48:03.126Z,7.03
2023-04-10T18:50:52.088Z,6.70
2023-04-10T18:53:38.410Z,6.90
2023-04-10T18:57:43.090Z,7.27
2023-04-10T19:00:28.556Z,7.10
2023-04-10T19:03:15.360Z,6.73
2023-04-10T19:06:01.670Z,6.70
2023-04-10T19:08:47.338Z,6.63
2023-04-10T19:11:32.772Z,7.40
2023-04-10T19:14:18.150Z,7.00
2023-04-10T19:17:06.136Z,6.80
2023-04-10T19:19:53.190Z,7.20
2023-04-10T19:22:38.555Z,6.83
2023-04-10T19:25:24.240Z,7.57
2023-04-10T19:28:11.210Z,7.83
2023-04-10T19:30:56.916Z,7.33
2023-04-10T19:33:42.272Z,7.37
2023-04-10T19:36:27.955Z,7.60
2023-04-10T19:39:13.583Z,7.60
2023-04-10T19:41:59.031Z,7.40
2023-04-10T19:44:44.477Z,7.20
2023-04-10T19:47:31.148Z,7.20
2023-04-10T19:50:16.902Z,6.93
2023-04-10T19:53:02.266Z,6.33
2023-04-10T19:55:47.610Z,6.60
2023-04-10T19:58:40.459Z,7.00
2023-04-10T20:01:26.146Z,6.57
2023-04-10T20:04:11.454Z,6.37
2023-04-10T20:06:57.175Z,6.67
2023-04-10T20:09:42.813Z,6.10
2023-04-10T20:12:30.085Z,6.67
2023-04-10T20:15:15.449Z,6.13
2023-04-10T20:18:01.276Z,6.13
2023-04-10T20:20:46.935Z,6.70
2023-04-10T20:23:32.551Z,5.77
2023-04-10T20:26:17.895Z,6.40
2023-04-10T20:29:03.413Z,6.00
2023-04-10T20:31:48.876Z,6.20
2023-04-10T20:34:36.325Z,6.30
2023-04-10T20:37:22.825Z,5.87
2023-04-10T20:40:09.087Z,6.20
2023-04-10T20:42:54.459Z,6.40
2023-04-10T20:45:40.469Z,6.13
2023-04-10T20:48:26.184Z,6.67
2023-04-10T20:51:12.715Z,5.60
2023-04-10T20:53:58.711Z,5.80
2023-04-10T20:56:44.200Z,6.13
2023-04-10T20:59:30.054Z,6.37
2023-04-10T21:02:17.591Z,6.43
2023-04-10T21:05:03.470Z,6.00
2023-04-10T21:07:48.977Z,5.97
2023-04-10T21:10:34.901Z,6.47
2023-04-10T21:13:20.190Z,6.13
2023-04-10T21:16:06.726Z,5.93
2023-04-10T21:18:53.607Z,5.97
2023-04-10T21:21:39.381Z,6.07
2023-04-10T21:24:24.976Z,6.23
2023-04-10T21:27:11.143Z,6.37
2023-04-10T21:29:56.626Z,5.80
2023-04-10T21:32:42.552Z,6.00
2023-04-10T21:35:27.972Z,6.03
2023-04-10T21:38:13.545Z,6.00
2023-04-10T21:40:58.864Z,5.97
2023-04-10T21:43:44.258Z,6.20
2023-04-10T21:46:30.543Z,5.57
2023-04-10T21:49:16.165Z,5.90
2023-04-10T21:52:01.716Z,5.50
2023-04-10T21:54:47.001Z,5.20
2023-04-10T21:57:36.655Z,5.80
2023-04-10T22:00:23.230Z,5.83
2023-04-10T22:03:09.685Z,5.23
2023-04-10T22:05:55.078Z,5.70
2023-04-10T22:08:41.358Z,5.50
2023-04-10T22:11:26.751Z,5.90
2023-04-10T22:14:18.001Z,5.43
2023-04-10T22:17:05.351Z,5.88
2023-04-10T22:19:51.117Z,5.30
2023-04-10T22:22:36.598Z,5.33
2023-04-10T22:25:21.856Z,5.70
2023-04-10T22:28:07.157Z,5.60
2023-04-10T22:30:52.491Z,5.57
2023-04-10T22:33:37.981Z,5.50
2023-04-10T22:36:23.759Z,5.77
2023-04-10T22:39:09.576Z,5.33
2023-04-10T22:41:54.775Z,5.40
2023-04-10T22:44:39.992Z,5.60
2023-04-10T22:47:25.314Z,5.70
2023-04-10T22:50:10.949Z,5.73
2023-04-10T22:52:56.466Z,5.60
2023-04-10T22:55:41.949Z,5.43
2023-04-10T22:58:27.504Z,5.43
2023-04-10T23:01:13.390Z,5.47
2023-04-10T23:03:58.656Z,5.10
2023-04-10T23:06:43.970Z,5.07
2023-04-10T23:09:29.224Z,5.13
2023-04-10T23:12:14.763Z,5.00
2023-04-10T23:14:59.911Z,5.13
2023-04-10T23:17:45.223Z,5.37
2023-04-10T23:20:30.493Z,5.07
2023-04-10T23:23:16.214Z,5.33
2023-04-10T23:26:01.603Z,5.27
2023-04-10T23:28:47.596Z,5.03
2023-04-10T23:31:32.958Z,5.00
2023-04-10T23:34:18.865Z,5.17
2023-04-10T23:37:04.075Z,4.87
2023-04-10T23:39:49.560Z,5.17
2023-04-10T23:42:35.609Z,5.13
2023-04-10T23:45:21.225Z,4.90
2023-04-10T23:48:08.118Z,4.90
2023-04-10T23:51:03.039Z,5.20
2023-04-10T23:53:48.373Z,5.03
2023-04-10T23:56:33.927Z,4.80
2023-04-10T23:59:19.404Z,5.07
